sensor_id;sensor_type;location;lat;lon;timestamp;P1;durP1;ratioP1;P2;durP2;ratioP2
59338;SDS011;45117;50.960;5.500;2022-10-16T00:00:29;2.75;;;1.20;;
59338;SDS011;45117;50.960;5.500;2022-10-16T00:02:55;1.00;;;0.80;;
59338;SDS011;45117;50.960;5.500;2022-10-16T00:05:23;2.55;;;1.13;;
59338;SDS011;45117;50.960;5.500;2022-10-16T00:07:50;4.25;;;1.15;;
59338;SDS011;45117;50.960;5.500;2022-10-16T00:10:16;1.75;;;0.90;;
59338;SDS011;45117;50.960;5.500;2022-10-16T00:12:43;2.70;;;1.00;;
59338;SDS011;45117;50.960;5.500;2022-10-16T00:15:09;1.45;;;1.00;;
59338;SDS011;45117;50.960;5.500;2022-10-16T00:17:36;2.55;;;1.30;;
59338;SDS011;45117;50.960;5.500;2022-10-16T00:20:02;1.80;;;1.10;;
59338;SDS011;45117;50.960;5.500;2022-10-16T00:22:31;3.17;;;1.00;;
59338;SDS011;45117;50.960;5.500;2022-10-16T00:24:58;3.22;;;1.10;;
59338;SDS011;45117;50.960;5.500;2022-10-16T00:27:25;2.17;;;1.20;;
59338;SDS011;45117;50.960;5.500;2022-10-16T00:29:51;1.48;;;0.95;;
59338;SDS011;45117;50.960;5.500;2022-10-16T00:32:18;2.85;;;1.33;;
59338;SDS011;45117;50.960;5.500;2022-10-16T00:34:45;3.70;;;1.15;;
59338;SDS011;45117;50.960;5.500;2022-10-16T00:37:12;2.13;;;1.20;;
59338;SDS011;45117;50.960;5.500;2022-10-16T00:39:40;3.65;;;1.27;;
59338;SDS011;45117;50.960;5.500;2022-10-16T00:42:09;2.13;;;1.00;;
59338;SDS011;45117;50.960;5.500;2022-10-16T00:44:41;4.25;;;1.88;;
59338;SDS011;45117;50.960;5.500;2022-10-16T00:47:15;4.10;;;2.58;;
59338;SDS011;45117;50.960;5.500;2022-10-16T00:49:45;4.13;;;2.67;;
59338;SDS011;45117;50.960;5.500;2022-10-16T00:52:13;3.75;;;2.28;;
59338;SDS011;45117;50.960;5.500;2022-10-16T00:54:42;6.10;;;2.00;;
59338;SDS011;45117;50.960;5.500;2022-10-16T00:57:09;2.95;;;1.65;;
59338;SDS011;45117;50.960;5.500;2022-10-16T00:59:36;2.58;;;1.40;;
59338;SDS011;45117;50.960;5.500;2022-10-16T01:02:05;2.45;;;1.52;;
59338;SDS011;45117;50.960;5.500;2022-10-16T01:04:35;4.30;;;1.50;;
59338;SDS011;45117;50.960;5.500;2022-10-16T01:07:06;4.97;;;1.70;;
59338;SDS011;45117;50.960;5.500;2022-10-16T01:09:40;2.35;;;1.60;;
59338;SDS011;45117;50.960;5.500;2022-10-16T01:12:17;4.13;;;2.05;;
59338;SDS011;45117;50.960;5.500;2022-10-16T01:14:51;2.65;;;1.48;;
59338;SDS011;45117;50.960;5.500;2022-10-16T01:17:21;2.45;;;1.38;;
59338;SDS011;45117;50.960;5.500;2022-10-16T01:20:00;3.42;;;1.80;;
59338;SDS011;45117;50.960;5.500;2022-10-16T01:22:33;3.00;;;1.90;;
59338;SDS011;45117;50.960;5.500;2022-10-16T01:25:08;2.30;;;1.70;;
59338;SDS011;45117;50.960;5.500;2022-10-16T01:27:39;3.92;;;1.60;;
59338;SDS011;45117;50.960;5.500;2022-10-16T01:30:10;2.38;;;1.70;;
59338;SDS011;45117;50.960;5.500;2022-10-16T01:32:42;2.33;;;1.50;;
59338;SDS011;45117;50.960;5.500;2022-10-16T01:35:14;2.95;;;1.50;;
59338;SDS011;45117;50.960;5.500;2022-10-16T01:37:47;2.35;;;1.50;;
59338;SDS011;45117;50.960;5.500;2022-10-16T01:40:17;1.95;;;1.33;;
59338;SDS011;45117;50.960;5.500;2022-10-16T01:42:48;2.92;;;1.55;;
59338;SDS011;45117;50.960;5.500;2022-10-16T01:45:18;1.27;;;1.13;;
59338;SDS011;45117;50.960;5.500;2022-10-16T01:47:46;1.92;;;1.30;;
59338;SDS011;45117;50.960;5.500;2022-10-16T01:50:14;1.63;;;1.30;;
59338;SDS011;45117;50.960;5.500;2022-10-16T01:52:44;2.33;;;1.20;;
59338;SDS011;45117;50.960;5.500;2022-10-16T01:55:16;4.10;;;1.75;;
59338;SDS011;45117;50.960;5.500;2022-10-16T01:57:46;2.40;;;1.60;;
59338;SDS011;45117;50.960;5.500;2022-10-16T02:00:16;1.98;;;1.45;;
59338;SDS011;45117;50.960;5.500;2022-10-16T02:02:45;3.33;;;1.40;;
59338;SDS011;45117;50.960;5.500;2022-10-16T02:05:16;1.83;;;1.33;;
59338;SDS011;45117;50.960;5.500;2022-10-16T02:07:48;1.98;;;1.20;;
59338;SDS011;45117;50.960;5.500;2022-10-16T02:10:15;1.25;;;1.15;;
59338;SDS011;45117;50.960;5.500;2022-10-16T02:12:42;1.50;;;1.20;;
59338;SDS011;45117;50.960;5.500;2022-10-16T02:15:15;2.28;;;1.27;;
59338;SDS011;45117;50.960;5.500;2022-10-16T02:17:42;1.52;;;1.20;;
59338;SDS011;45117;50.960;5.500;2022-10-16T02:20:08;3.10;;;1.38;;
59338;SDS011;45117;50.960;5.500;2022-10-16T02:22:37;3.70;;;1.48;;
59338;SDS011;45117;50.960;5.500;2022-10-16T02:25:06;1.95;;;1.60;;
59338;SDS011;45117;50.960;5.500;2022-10-16T02:27:38;3.38;;;1.25;;
59338;SDS011;45117;50.960;5.500;2022-10-16T02:30:11;2.03;;;1.20;;
59338;SDS011;45117;50.960;5.500;2022-10-16T02:32:43;2.25;;;1.23;;
59338;SDS011;45117;50.960;5.500;2022-10-16T02:35:12;1.65;;;1.17;;
59338;SDS011;45117;50.960;5.500;2022-10-16T02:37:39;2.00;;;1.30;;
59338;SDS011;45117;50.960;5.500;2022-10-16T02:40:07;1.70;;;1.50;;
59338;SDS011;45117;50.960;5.500;2022-10-16T02:42:36;2.78;;;2.20;;
59338;SDS011;45117;50.960;5.500;2022-10-16T02:45:04;3.55;;;2.10;;
59338;SDS011;45117;50.960;5.500;2022-10-16T02:47:31;6.20;;;2.92;;
59338;SDS011;45117;50.960;5.500;2022-10-16T02:49:59;5.20;;;2.92;;
59338;SDS011;45117;50.960;5.500;2022-10-16T02:52:25;4.55;;;2.75;;
59338;SDS011;45117;50.960;5.500;2022-10-16T02:54:52;3.17;;;2.40;;
59338;SDS011;45117;50.960;5.500;2022-10-16T02:57:18;4.63;;;2.03;;
59338;SDS011;45117;50.960;5.500;2022-10-16T02:59:45;2.95;;;1.58;;
59338;SDS011;45117;50.960;5.500;2022-10-16T03:02:11;1.90;;;1.40;;
59338;SDS011;45117;50.960;5.500;2022-10-16T03:04:38;2.33;;;1.48;;
59338;SDS011;45117;50.960;5.500;2022-10-16T03:07:06;3.22;;;1.33;;
59338;SDS011;45117;50.960;5.500;2022-10-16T03:09:32;2.38;;;1.50;;
59338;SDS011;45117;50.960;5.500;2022-10-16T03:11:59;2.33;;;1.00;;
59338;SDS011;45117;50.960;5.500;2022-10-16T03:14:25;3.92;;;1.48;;
59338;SDS011;45117;50.960;5.500;2022-10-16T03:16:52;2.10;;;1.00;;
59338;SDS011;45117;50.960;5.500;2022-10-16T03:19:18;2.92;;;1.30;;
59338;SDS011;45117;50.960;5.500;2022-10-16T03:21:45;5.18;;;1.08;;
59338;SDS011;45117;50.960;5.500;2022-10-16T03:24:13;2.28;;;1.20;;
59338;SDS011;45117;50.960;5.500;2022-10-16T03:26:39;2.05;;;1.40;;
59338;SDS011;45117;50.960;5.500;2022-10-16T03:29:06;4.45;;;1.58;;
59338;SDS011;45117;50.960;5.500;2022-10-16T03:31:32;1.77;;;1.40;;
59338;SDS011;45117;50.960;5.500;2022-10-16T03:33:59;1.70;;;1.40;;
59338;SDS011;45117;50.960;5.500;2022-10-16T03:36:25;2.10;;;1.20;;
59338;SDS011;45117;50.960;5.500;2022-10-16T03:38:52;2.03;;;1.50;;
59338;SDS011;45117;50.960;5.500;2022-10-16T03:41:20;1.63;;;1.35;;
59338;SDS011;45117;50.960;5.500;2022-10-16T03:43:46;3.28;;;2.35;;
59338;SDS011;45117;50.960;5.500;2022-10-16T03:46:13;3.85;;;2.20;;
59338;SDS011;45117;50.960;5.500;2022-10-16T03:48:39;2.13;;;1.70;;
59338;SDS011;45117;50.960;5.500;2022-10-16T03:51:06;4.07;;;1.98;;
59338;SDS011;45117;50.960;5.500;2022-10-16T03:53:32;4.43;;;2.22;;
59338;SDS011;45117;50.960;5.500;2022-10-16T03:55:59;3.42;;;2.42;;
59338;SDS011;45117;50.960;5.500;2022-10-16T03:58:26;5.63;;;3.63;;
59338;SDS011;45117;50.960;5.500;2022-10-16T04:00:53;4.75;;;3.90;;
59338;SDS011;45117;50.960;5.500;2022-10-16T04:03:19;3.20;;;2.60;;
59338;SDS011;45117;50.960;5.500;2022-10-16T04:05:46;3.30;;;2.60;;
59338;SDS011;45117;50.960;5.500;2022-10-16T04:08:13;4.18;;;2.70;;
59338;SDS011;45117;50.960;5.500;2022-10-16T04:10:39;4.30;;;2.47;;
59338;SDS011;45117;50.960;5.500;2022-10-16T04:13:08;7.75;;;2.80;;
59338;SDS011;45117;50.960;5.500;2022-10-16T04:15:35;4.72;;;2.55;;
59338;SDS011;45117;50.960;5.500;2022-10-16T04:18:02;5.05;;;2.40;;
59338;SDS011;45117;50.960;5.500;2022-10-16T04:20:29;7.22;;;2.30;;
59338;SDS011;45117;50.960;5.500;2022-10-16T04:22:57;3.03;;;2.28;;
59338;SDS011;45117;50.960;5.500;2022-10-16T04:25:23;3.10;;;2.30;;
59338;SDS011;45117;50.960;5.500;2022-10-16T04:27:52;5.25;;;2.53;;
59338;SDS011;45117;50.960;5.500;2022-10-16T04:30:18;4.05;;;2.40;;
59338;SDS011;45117;50.960;5.500;2022-10-16T04:32:48;5.10;;;2.40;;
59338;SDS011;45117;50.960;5.500;2022-10-16T04:35:15;5.68;;;3.13;;
59338;SDS011;45117;50.960;5.500;2022-10-16T04:37:42;3.42;;;2.75;;
59338;SDS011;45117;50.960;5.500;2022-10-16T04:40:09;4.38;;;3.20;;
59338;SDS011;45117;50.960;5.500;2022-10-16T04:42:35;5.35;;;3.10;;
59338;SDS011;45117;50.960;5.500;2022-10-16T04:45:02;5.88;;;3.38;;
59338;SDS011;45117;50.960;5.500;2022-10-16T04:47:29;3.88;;;2.92;;
59338;SDS011;45117;50.960;5.500;2022-10-16T04:49:57;4.63;;;2.83;;
59338;SDS011;45117;50.960;5.500;2022-10-16T04:52:26;4.53;;;3.00;;
59338;SDS011;45117;50.960;5.500;2022-10-16T04:54:52;3.88;;;2.67;;
59338;SDS011;45117;50.960;5.500;2022-10-16T04:57:20;3.78;;;2.83;;
59338;SDS011;45117;50.960;5.500;2022-10-16T04:59:46;4.57;;;2.50;;
59338;SDS011;45117;50.960;5.500;2022-10-16T05:02:13;6.03;;;3.72;;
59338;SDS011;45117;50.960;5.500;2022-10-16T05:04:39;4.45;;;2.85;;
59338;SDS011;45117;50.960;5.500;2022-10-16T05:07:07;3.53;;;2.47;;
59338;SDS011;45117;50.960;5.500;2022-10-16T05:09:34;5.97;;;2.47;;
59338;SDS011;45117;50.960;5.500;2022-10-16T05:12:00;3.58;;;2.20;;
59338;SDS011;45117;50.960;5.500;2022-10-16T05:14:28;3.95;;;2.60;;
59338;SDS011;45117;50.960;5.500;2022-10-16T05:16:55;3.30;;;2.40;;
59338;SDS011;45117;50.960;5.500;2022-10-16T05:19:21;6.32;;;2.75;;
59338;SDS011;45117;50.960;5.500;2022-10-16T05:21:48;3.72;;;2.75;;
59338;SDS011;45117;50.960;5.500;2022-10-16T05:24:16;4.97;;;3.08;;
59338;SDS011;45117;50.960;5.500;2022-10-16T05:26:42;6.60;;;3.28;;
59338;SDS011;45117;50.960;5.500;2022-10-16T05:29:09;4.85;;;2.78;;
59338;SDS011;45117;50.960;5.500;2022-10-16T05:31:35;4.88;;;3.42;;
59338;SDS011;45117;50.960;5.500;2022-10-16T05:34:02;4.75;;;3.75;;
59338;SDS011;45117;50.960;5.500;2022-10-16T05:36:29;8.55;;;4.03;;
59338;SDS011;45117;50.960;5.500;2022-10-16T05:38:55;6.63;;;3.40;;
59338;SDS011;45117;50.960;5.500;2022-10-16T05:41:23;4.50;;;3.58;;
59338;SDS011;45117;50.960;5.500;2022-10-16T05:43:51;5.60;;;3.53;;
59338;SDS011;45117;50.960;5.500;2022-10-16T05:46:17;5.82;;;3.65;;
59338;SDS011;45117;50.960;5.500;2022-10-16T05:48:44;5.38;;;4.10;;
59338;SDS011;45117;50.960;5.500;2022-10-16T05:51:11;5.32;;;4.18;;
59338;SDS011;45117;50.960;5.500;2022-10-16T05:53:39;7.03;;;4.25;;
59338;SDS011;45117;50.960;5.500;2022-10-16T05:56:07;6.40;;;4.20;;
59338;SDS011;45117;50.960;5.500;2022-10-16T05:58:38;4.90;;;3.05;;
59338;SDS011;45117;50.960;5.500;2022-10-16T06:01:06;5.72;;;3.15;;
59338;SDS011;45117;50.960;5.500;2022-10-16T06:03:35;5.82;;;3.20;;
59338;SDS011;45117;50.960;5.500;2022-10-16T06:06:06;3.78;;;2.85;;
59338;SDS011;45117;50.960;5.500;2022-10-16T06:08:34;3.75;;;2.53;;
59338;SDS011;45117;50.960;5.500;2022-10-16T06:11:01;3.53;;;2.83;;
59338;SDS011;45117;50.960;5.500;2022-10-16T06:13:28;4.28;;;2.60;;
59338;SDS011;45117;50.960;5.500;2022-10-16T06:15:56;5.72;;;2.80;;
59338;SDS011;45117;50.960;5.500;2022-10-16T06:18:23;5.43;;;2.78;;
59338;SDS011;45117;50.960;5.500;2022-10-16T06:20:50;4.68;;;2.60;;
59338;SDS011;45117;50.960;5.500;2022-10-16T06:23:16;3.92;;;2.70;;
59338;SDS011;45117;50.960;5.500;2022-10-16T06:25:43;6.40;;;2.95;;
59338;SDS011;45117;50.960;5.500;2022-10-16T06:28:09;7.00;;;2.90;;
59338;SDS011;45117;50.960;5.500;2022-10-16T06:30:36;4.78;;;3.38;;
59338;SDS011;45117;50.960;5.500;2022-10-16T06:33:04;4.47;;;3.30;;
59338;SDS011;45117;50.960;5.500;2022-10-16T06:35:30;6.63;;;3.28;;
59338;SDS011;45117;50.960;5.500;2022-10-16T06:37:57;5.35;;;3.40;;
59338;SDS011;45117;50.960;5.500;2022-10-16T06:40:24;6.43;;;3.70;;
59338;SDS011;45117;50.960;5.500;2022-10-16T06:42:50;7.53;;;3.58;;
59338;SDS011;45117;50.960;5.500;2022-10-16T06:45:17;5.35;;;3.70;;
59338;SDS011;45117;50.960;5.500;2022-10-16T06:47:44;5.57;;;4.03;;
59338;SDS011;45117;50.960;5.500;2022-10-16T06:50:12;7.25;;;3.95;;
59338;SDS011;45117;50.960;5.500;2022-10-16T06:52:38;3.55;;;2.90;;
59338;SDS011;45117;50.960;5.500;2022-10-16T06:55:05;6.03;;;3.92;;
59338;SDS011;45117;50.960;5.500;2022-10-16T06:57:32;6.07;;;3.88;;
59338;SDS011;45117;50.960;5.500;2022-10-16T06:59:58;7.90;;;4.25;;
59338;SDS011;45117;50.960;5.500;2022-10-16T07:02:25;4.18;;;3.72;;
59338;SDS011;45117;50.960;5.500;2022-10-16T07:04:51;4.82;;;3.90;;
59338;SDS011;45117;50.960;5.500;2022-10-16T07:07:19;6.13;;;4.30;;
59338;SDS011;45117;50.960;5.500;2022-10-16T07:09:45;5.55;;;3.47;;
59338;SDS011;45117;50.960;5.500;2022-10-16T07:12:12;3.42;;;2.97;;
59338;SDS011;45117;50.960;5.500;2022-10-16T07:14:39;4.10;;;2.50;;
59338;SDS011;45117;50.960;5.500;2022-10-16T07:17:05;4.53;;;2.55;;
59338;SDS011;45117;50.960;5.500;2022-10-16T07:19:32;3.85;;;2.40;;
59338;SDS011;45117;50.960;5.500;2022-10-16T07:21:58;2.67;;;1.95;;
59338;SDS011;45117;50.960;5.500;2022-10-16T07:24:26;2.13;;;1.88;;
59338;SDS011;45117;50.960;5.500;2022-10-16T07:26:53;3.75;;;2.20;;
59338;SDS011;45117;50.960;5.500;2022-10-16T07:29:20;2.83;;;2.03;;
59338;SDS011;45117;50.960;5.500;2022-10-16T07:31:48;4.93;;;2.40;;
59338;SDS011;45117;50.960;5.500;2022-10-16T07:34:15;4.22;;;2.00;;
59338;SDS011;45117;50.960;5.500;2022-10-16T07:36:43;4.68;;;2.22;;
59338;SDS011;45117;50.960;5.500;2022-10-16T07:39:11;4.20;;;2.00;;
59338;SDS011;45117;50.960;5.500;2022-10-16T07:41:38;2.28;;;1.73;;
59338;SDS011;45117;50.960;5.500;2022-10-16T07:44:05;4.50;;;2.25;;
59338;SDS011;45117;50.960;5.500;2022-10-16T07:46:31;4.05;;;2.35;;
59338;SDS011;45117;50.960;5.500;2022-10-16T07:49:00;4.75;;;3.05;;
59338;SDS011;45117;50.960;5.500;2022-10-16T07:51:27;5.82;;;4.00;;
59338;SDS011;45117;50.960;5.500;2022-10-16T07:53:54;5.32;;;4.07;;
59338;SDS011;45117;50.960;5.500;2022-10-16T07:56:21;18.00;;;11.32;;
59338;SDS011;45117;50.960;5.500;2022-10-16T07:58:49;10.55;;;6.35;;
59338;SDS011;45117;50.960;5.500;2022-10-16T08:01:16;7.15;;;3.80;;
59338;SDS011;45117;50.960;5.500;2022-10-16T08:03:44;7.63;;;4.40;;
59338;SDS011;45117;50.960;5.500;2022-10-16T08:06:11;4.53;;;2.10;;
59338;SDS011;45117;50.960;5.500;2022-10-16T08:08:37;5.75;;;2.85;;
59338;SDS011;45117;50.960;5.500;2022-10-16T08:11:04;4.35;;;1.98;;
59338;SDS011;45117;50.960;5.500;2022-10-16T08:13:30;2.53;;;1.50;;
59338;SDS011;45117;50.960;5.500;2022-10-16T08:15:58;3.42;;;1.75;;
59338;SDS011;45117;50.960;5.500;2022-10-16T08:18:25;2.00;;;1.50;;
59338;SDS011;45117;50.960;5.500;2022-10-16T08:20:55;4.00;;;1.23;;
59338;SDS011;45117;50.960;5.500;2022-10-16T08:23:22;3.22;;;1.38;;
59338;SDS011;45117;50.960;5.500;2022-10-16T08:25:48;2.22;;;1.30;;
59338;SDS011;45117;50.960;5.500;2022-10-16T08:28:15;3.22;;;1.05;;
59338;SDS011;45117;50.960;5.500;2022-10-16T08:30:41;3.83;;;1.10;;
59338;SDS011;45117;50.960;5.500;2022-10-16T08:33:09;4.53;;;1.20;;
59338;SDS011;45117;50.960;5.500;2022-10-16T08:35:36;3.70;;;1.27;;
59338;SDS011;45117;50.960;5.500;2022-10-16T08:38:02;3.15;;;1.00;;
59338;SDS011;45117;50.960;5.500;2022-10-16T08:40:29;3.30;;;1.10;;
59338;SDS011;45117;50.960;5.500;2022-10-16T08:43:01;3.85;;;0.90;;
59338;SDS011;45117;50.960;5.500;2022-10-16T08:45:59;2.88;;;1.02;;
59338;SDS011;45117;50.960;5.500;2022-10-16T08:48:50;2.35;;;1.23;;
59338;SDS011;45117;50.960;5.500;2022-10-16T08:51:19;2.35;;;1.10;;
59338;SDS011;45117;50.960;5.500;2022-10-16T08:53:50;1.70;;;1.10;;
59338;SDS011;45117;50.960;5.500;2022-10-16T08:56:20;1.38;;;0.90;;
59338;SDS011;45117;50.960;5.500;2022-10-16T08:58:47;2.17;;;1.10;;
59338;SDS011;45117;50.960;5.500;2022-10-16T09:01:14;2.38;;;0.90;;
59338;SDS011;45117;50.960;5.500;2022-10-16T09:03:48;2.83;;;0.80;;
59338;SDS011;45117;50.960;5.500;2022-10-16T09:06:30;3.10;;;1.02;;
59338;SDS011;45117;50.960;5.500;2022-10-16T09:09:17;2.75;;;0.90;;
59338;SDS011;45117;50.960;5.500;2022-10-16T09:12:07;5.78;;;0.90;;
59338;SDS011;45117;50.960;5.500;2022-10-16T09:14:45;2.15;;;0.82;;
59338;SDS011;45117;50.960;5.500;2022-10-16T09:17:22;3.40;;;0.90;;
59338;SDS011;45117;50.960;5.500;2022-10-16T09:20:03;2.85;;;0.70;;
59338;SDS011;45117;50.960;5.500;2022-10-16T09:22:48;2.40;;;0.82;;
59338;SDS011;45117;50.960;5.500;2022-10-16T09:25:18;3.35;;;0.80;;
59338;SDS011;45117;50.960;5.500;2022-10-16T09:27:48;2.58;;;0.77;;
59338;SDS011;45117;50.960;5.500;2022-10-16T09:30:19;2.17;;;0.80;;
59338;SDS011;45117;50.960;5.500;2022-10-16T09:32:48;2.15;;;0.82;;
59338;SDS011;45117;50.960;5.500;2022-10-16T09:35:19;2.25;;;0.80;;
59338;SDS011;45117;50.960;5.500;2022-10-16T09:37:50;5.05;;;1.10;;
59338;SDS011;45117;50.960;5.500;2022-10-16T09:40:26;3.40;;;0.93;;
59338;SDS011;45117;50.960;5.500;2022-10-16T09:42:57;2.00;;;0.80;;
59338;SDS011;45117;50.960;5.500;2022-10-16T09:45:29;2.10;;;0.80;;
59338;SDS011;45117;50.960;5.500;2022-10-16T09:47:56;3.25;;;0.75;;
59338;SDS011;45117;50.960;5.500;2022-10-16T09:50:24;3.30;;;0.80;;
59338;SDS011;45117;50.960;5.500;2022-10-16T09:53:05;4.95;;;1.15;;
59338;SDS011;45117;50.960;5.500;2022-10-16T09:55:36;1.95;;;0.80;;
59338;SDS011;45117;50.960;5.500;2022-10-16T09:58:14;3.65;;;1.00;;
59338;SDS011;45117;50.960;5.500;2022-10-16T10:03:09;4.45;;;1.40;;
59338;SDS011;45117;50.960;5.500;2022-10-16T10:05:38;2.85;;;0.73;;
59338;SDS011;45117;50.960;5.500;2022-10-16T10:08:06;6.55;;;1.30;;
59338;SDS011;45117;50.960;5.500;2022-10-16T10:10:34;3.13;;;0.75;;
59338;SDS011;45117;50.960;5.500;2022-10-16T10:13:14;3.42;;;0.90;;
59338;SDS011;45117;50.960;5.500;2022-10-16T10:15:45;3.35;;;0.80;;
59338;SDS011;45117;50.960;5.500;2022-10-16T10:18:15;2.70;;;0.77;;
59338;SDS011;45117;50.960;5.500;2022-10-16T10:20:45;4.80;;;0.90;;
59338;SDS011;45117;50.960;5.500;2022-10-16T10:23:23;2.10;;;0.80;;
59338;SDS011;45117;50.960;5.500;2022-10-16T10:25:51;2.20;;;0.60;;
59338;SDS011;45117;50.960;5.500;2022-10-16T10:28:32;4.68;;;1.05;;
59338;SDS011;45117;50.960;5.500;2022-10-16T10:31:19;5.45;;;0.80;;
59338;SDS011;45117;50.960;5.500;2022-10-16T10:33:52;2.40;;;0.57;;
59338;SDS011;45117;50.960;5.500;2022-10-16T10:36:29;2.33;;;0.90;;
59338;SDS011;45117;50.960;5.500;2022-10-16T10:38:58;2.17;;;0.75;;
59338;SDS011;45117;50.960;5.500;2022-10-16T10:41:41;4.82;;;0.70;;
59338;SDS011;45117;50.960;5.500;2022-10-16T10:44:33;1.85;;;0.70;;
59338;SDS011;45117;50.960;5.500;2022-10-16T10:47:22;3.83;;;0.60;;
59338;SDS011;45117;50.960;5.500;2022-10-16T10:50:02;3.70;;;0.80;;
59338;SDS011;45117;50.960;5.500;2022-10-16T10:52:42;2.05;;;0.88;;
59338;SDS011;45117;50.960;5.500;2022-10-16T10:55:20;3.53;;;0.70;;
59338;SDS011;45117;50.960;5.500;2022-10-16T10:57:56;2.78;;;0.88;;
59338;SDS011;45117;50.960;5.500;2022-10-16T11:00:38;7.35;;;0.93;;
59338;SDS011;45117;50.960;5.500;2022-10-16T11:03:13;2.28;;;0.60;;
59338;SDS011;45117;50.960;5.500;2022-10-16T11:05:51;2.88;;;0.70;;
59338;SDS011;45117;50.960;5.500;2022-10-16T11:08:26;2.58;;;0.80;;
59338;SDS011;45117;50.960;5.500;2022-10-16T11:10:58;3.03;;;0.80;;
59338;SDS011;45117;50.960;5.500;2022-10-16T11:13:30;2.00;;;0.70;;
59338;SDS011;45117;50.960;5.500;2022-10-16T11:16:01;2.42;;;0.90;;
59338;SDS011;45117;50.960;5.500;2022-10-16T11:18:37;4.35;;;0.90;;
59338;SDS011;45117;50.960;5.500;2022-10-16T11:21:08;2.88;;;1.05;;
59338;SDS011;45117;50.960;5.500;2022-10-16T11:23:41;4.88;;;1.05;;
59338;SDS011;45117;50.960;5.500;2022-10-16T11:26:14;2.42;;;0.70;;
59338;SDS011;45117;50.960;5.500;2022-10-16T11:28:45;1.73;;;0.70;;
59338;SDS011;45117;50.960;5.500;2022-10-16T11:31:16;6.45;;;0.90;;
59338;SDS011;45117;50.960;5.500;2022-10-16T11:33:47;2.53;;;1.30;;
59338;SDS011;45117;50.960;5.500;2022-10-16T11:36:21;3.50;;;0.88;;
59338;SDS011;45117;50.960;5.500;2022-10-16T11:38:53;2.65;;;0.98;;
59338;SDS011;45117;50.960;5.500;2022-10-16T11:41:26;1.60;;;0.60;;
59338;SDS011;45117;50.960;5.500;2022-10-16T11:44:03;2.97;;;0.75;;
59338;SDS011;45117;50.960;5.500;2022-10-16T11:46:40;1.95;;;0.80;;
59338;SDS011;45117;50.960;5.500;2022-10-16T11:49:12;4.00;;;1.00;;
59338;SDS011;45117;50.960;5.500;2022-10-16T11:51:43;1.50;;;0.77;;
59338;SDS011;45117;50.960;5.500;2022-10-16T11:54:19;1.92;;;0.85;;
59338;SDS011;45117;50.960;5.500;2022-10-16T11:56:53;3.50;;;1.00;;
59338;SDS011;45117;50.960;5.500;2022-10-16T11:59:25;4.00;;;0.70;;
59338;SDS011;45117;50.960;5.500;2022-10-16T12:01:59;3.20;;;1.02;;
59338;SDS011;45117;50.960;5.500;2022-10-16T12:04:44;3.60;;;0.88;;
59338;SDS011;45117;50.960;5.500;2022-10-16T12:07:16;2.33;;;1.05;;
59338;SDS011;45117;50.960;5.500;2022-10-16T12:09:49;3.20;;;0.82;;
59338;SDS011;45117;50.960;5.500;2022-10-16T12:12:23;1.77;;;0.60;;
59338;SDS011;45117;50.960;5.500;2022-10-16T12:14:59;0.45;;;0.40;;
59338;SDS011;45117;50.960;5.500;2022-10-16T12:17:27;1.25;;;0.60;;
59338;SDS011;45117;50.960;5.500;2022-10-16T12:20:12;3.72;;;0.80;;
59338;SDS011;45117;50.960;5.500;2022-10-16T12:22:47;4.82;;;0.70;;
59338;SDS011;45117;50.960;5.500;2022-10-16T12:25:20;2.42;;;0.80;;
59338;SDS011;45117;50.960;5.500;2022-10-16T12:27:59;3.88;;;0.75;;
59338;SDS011;45117;50.960;5.500;2022-10-16T12:30:29;2.00;;;0.70;;
59338;SDS011;45117;50.960;5.500;2022-10-16T12:32:58;3.13;;;0.70;;
59338;SDS011;45117;50.960;5.500;2022-10-16T12:35:27;3.88;;;0.80;;
59338;SDS011;45117;50.960;5.500;2022-10-16T12:38:04;1.25;;;0.70;;
59338;SDS011;45117;50.960;5.500;2022-10-16T12:40:35;1.40;;;0.63;;
59338;SDS011;45117;50.960;5.500;2022-10-16T12:43:11;2.47;;;1.00;;
59338;SDS011;45117;50.960;5.500;2022-10-16T12:45:58;2.10;;;0.63;;
59338;SDS011;45117;50.960;5.500;2022-10-16T12:48:25;3.10;;;0.80;;
59338;SDS011;45117;50.960;5.500;2022-10-16T12:50:52;2.47;;;0.68;;
59338;SDS011;45117;50.960;5.500;2022-10-16T12:53:19;2.90;;;0.75;;
59338;SDS011;45117;50.960;5.500;2022-10-16T12:55:52;1.60;;;0.68;;
59338;SDS011;45117;50.960;5.500;2022-10-16T12:58:33;2.63;;;0.70;;
59338;SDS011;45117;50.960;5.500;2022-10-16T13:01:19;2.30;;;0.60;;
59338;SDS011;45117;50.960;5.500;2022-10-16T13:04:11;2.00;;;0.70;;
59338;SDS011;45117;50.960;5.500;2022-10-16T13:06:59;3.33;;;0.80;;
59338;SDS011;45117;50.960;5.500;2022-10-16T13:09:40;2.35;;;0.70;;
59338;SDS011;45117;50.960;5.500;2022-10-16T13:12:18;25.38;;;12.50;;
59338;SDS011;45117;50.960;5.500;2022-10-16T13:15:00;3.72;;;1.50;;
59338;SDS011;45117;50.960;5.500;2022-10-16T13:17:37;4.70;;;1.45;;
59338;SDS011;45117;50.960;5.500;2022-10-16T13:20:14;3.53;;;0.73;;
59338;SDS011;45117;50.960;5.500;2022-10-16T13:22:50;5.57;;;2.55;;
59338;SDS011;45117;50.960;5.500;2022-10-16T13:25:25;2.97;;;1.20;;
59338;SDS011;45117;50.960;5.500;2022-10-16T13:28:02;2.85;;;0.82;;
59338;SDS011;45117;50.960;5.500;2022-10-16T13:30:30;4.65;;;2.40;;
59338;SDS011;45117;50.960;5.500;2022-10-16T13:33:00;4.43;;;1.55;;
59338;SDS011;45117;50.960;5.500;2022-10-16T13:35:28;7.65;;;3.95;;
59338;SDS011;45117;50.960;5.500;2022-10-16T13:38:03;3.92;;;2.70;;
59338;SDS011;45117;50.960;5.500;2022-10-16T13:40:47;2.63;;;1.40;;
59338;SDS011;45117;50.960;5.500;2022-10-16T13:43:16;3.55;;;1.15;;
59338;SDS011;45117;50.960;5.500;2022-10-16T13:45:52;2.90;;;1.48;;
59338;SDS011;45117;50.960;5.500;2022-10-16T13:48:19;3.65;;;1.10;;
59338;SDS011;45117;50.960;5.500;2022-10-16T13:50:46;2.78;;;0.90;;
59338;SDS011;45117;50.960;5.500;2022-10-16T13:53:12;2.88;;;1.40;;
59338;SDS011;45117;50.960;5.500;2022-10-16T13:55:40;5.43;;;1.70;;
59338;SDS011;45117;50.960;5.500;2022-10-16T13:58:07;2.92;;;1.48;;
59338;SDS011;45117;50.960;5.500;2022-10-16T14:00:39;2.22;;;1.05;;
59338;SDS011;45117;50.960;5.500;2022-10-16T14:03:18;2.28;;;0.80;;
59338;SDS011;45117;50.960;5.500;2022-10-16T14:05:46;2.30;;;1.10;;
59338;SDS011;45117;50.960;5.500;2022-10-16T14:08:15;6.88;;;1.33;;
59338;SDS011;45117;50.960;5.500;2022-10-16T14:10:42;6.03;;;1.33;;
59338;SDS011;45117;50.960;5.500;2022-10-16T14:13:12;2.47;;;0.80;;
59338;SDS011;45117;50.960;5.500;2022-10-16T14:15:45;3.53;;;1.20;;
59338;SDS011;45117;50.960;5.500;2022-10-16T14:18:15;2.45;;;0.90;;
59338;SDS011;45117;50.960;5.500;2022-10-16T14:20:46;2.20;;;0.80;;
59338;SDS011;45117;50.960;5.500;2022-10-16T14:23:19;3.63;;;0.98;;
59338;SDS011;45117;50.960;5.500;2022-10-16T14:25:48;4.43;;;1.40;;
59338;SDS011;45117;50.960;5.500;2022-10-16T14:28:15;2.42;;;1.00;;
59338;SDS011;45117;50.960;5.500;2022-10-16T14:30:51;4.93;;;1.60;;
59338;SDS011;45117;50.960;5.500;2022-10-16T14:33:20;3.30;;;1.30;;
59338;SDS011;45117;50.960;5.500;2022-10-16T14:35:58;3.20;;;1.40;;
59338;SDS011;45117;50.960;5.500;2022-10-16T14:38:27;4.18;;;1.30;;
59338;SDS011;45117;50.960;5.500;2022-10-16T14:40:54;3.30;;;1.45;;
59338;SDS011;45117;50.960;5.500;2022-10-16T14:43:26;2.92;;;1.08;;
59338;SDS011;45117;50.960;5.500;2022-10-16T14:45:59;2.25;;;0.98;;
59338;SDS011;45117;50.960;5.500;2022-10-16T14:48:28;2.95;;;0.95;;
59338;SDS011;45117;50.960;5.500;2022-10-16T14:50:55;3.00;;;0.80;;
59338;SDS011;45117;50.960;5.500;2022-10-16T14:53:21;3.17;;;1.10;;
59338;SDS011;45117;50.960;5.500;2022-10-16T14:55:48;3.08;;;1.17;;
59338;SDS011;45117;50.960;5.500;2022-10-16T14:58:15;3.97;;;1.30;;
59338;SDS011;45117;50.960;5.500;2022-10-16T15:00:43;3.47;;;1.50;;
59338;SDS011;45117;50.960;5.500;2022-10-16T15:03:11;4.28;;;1.50;;
59338;SDS011;45117;50.960;5.500;2022-10-16T15:05:38;4.00;;;1.40;;
59338;SDS011;45117;50.960;5.500;2022-10-16T15:08:04;5.60;;;1.60;;